createdAt,value
2016-06-04T00:00:07.167Z,951.7
2016-06-04T00:00:17.151Z,951.7
2016-06-04T00:00:27.167Z,951.7
2016-06-04T00:00:37.185Z,951.8
2016-06-04T00:00:47.169Z,951.8
2016-06-04T00:00:56.997Z,951.7
2016-06-04T00:01:07.138Z,951.7
2016-06-04T00:01:17.153Z,951.8
2016-06-04T00:01:27.153Z,951.8
2016-06-04T00:01:37.188Z,951.8
2016-06-04T00:01:47.203Z,951.7
2016-06-04T00:01:56.828Z,951.8
2016-06-04T00:02:07.125Z,951.8
2016-06-04T00:02:17.141Z,951.8
2016-06-04T00:02:27.141Z,951.8
2016-06-04T00:02:37.141Z,951.8
2016-06-04T00:02:47.127Z,951.7
2016-06-04T00:02:57.112Z,951.8
2016-06-04T00:03:07.112Z,951.8
2016-06-04T00:03:17.127Z,951.9
2016-06-04T00:03:27.112Z,951.8
2016-06-04T00:03:37.127Z,951.9
2016-06-04T00:03:47.100Z,951.9
2016-06-04T00:03:57.116Z,951.8
2016-06-04T00:04:07.100Z,951.8
2016-06-04T00:04:17.147Z,951.9
2016-06-04T00:04:27.116Z,951.8
2016-06-04T00:04:37.084Z,951.9
2016-06-04T00:04:47.102Z,951.9
2016-06-04T00:04:57.086Z,951.9
2016-06-04T00:05:07.102Z,951.9
2016-06-04T00:05:17.102Z,951.9
2016-06-04T00:05:27.086Z,951.9
2016-06-04T00:05:37.086Z,951.8
2016-06-04T00:05:47.089Z,951.9
2016-06-04T00:05:57.121Z,951.9
2016-06-04T00:06:07.089Z,951.9
2016-06-04T00:06:17.105Z,951.8
2016-06-04T00:06:27.074Z,951.8
2016-06-04T00:06:37.058Z,951.9
2016-06-04T00:06:47.077Z,951.9
2016-06-04T00:06:57.092Z,952
2016-06-04T00:07:07.061Z,951.8
2016-06-04T00:07:17.092Z,951.9
2016-06-04T00:07:27.045Z,951.9
2016-06-04T00:07:37.061Z,952
2016-06-04T00:07:47.063Z,951.9
2016-06-04T00:07:57.094Z,952
2016-06-04T00:08:07.063Z,952
2016-06-04T00:08:17.047Z,952
2016-06-04T00:08:27.047Z,951.9
2016-06-04T00:08:36.907Z,952
2016-06-04T00:08:47.050Z,952
2016-06-04T00:08:57.050Z,952
2016-06-04T00:09:07.035Z,952.1
2016-06-04T00:09:17.035Z,952
2016-06-04T00:09:27.019Z,952.1
2016-06-04T00:09:37.050Z,952
2016-06-04T00:09:47.038Z,952.1
2016-06-04T00:09:57.038Z,952.1
2016-06-04T00:10:07.007Z,952.1
2016-06-04T00:10:17.022Z,952.1
2016-06-04T00:10:27.038Z,952
2016-06-04T00:10:37.444Z,952.1
2016-06-04T00:10:49.712Z,952.1
2016-06-04T00:10:57.227Z,952.1
2016-06-04T00:11:07.290Z,952.2
2016-06-04T00:11:17.571Z,952.2
2016-06-04T00:11:27.149Z,952.2
2016-06-04T00:11:37.415Z,952
2016-06-04T00:11:47.026Z,952.1
2016-06-04T00:11:56.886Z,952
2016-06-04T00:12:06.995Z,952.1
2016-06-04T00:12:17.011Z,952.1
2016-06-04T00:12:26.979Z,952.1
2016-06-04T00:12:36.995Z,952.2
2016-06-04T00:12:46.999Z,952.1
2016-06-04T00:12:57.015Z,952.1
2016-06-04T00:13:06.983Z,952.1
2016-06-04T00:13:16.999Z,952.2
2016-06-04T00:13:26.983Z,952.2
2016-06-04T00:13:36.983Z,952.2
2016-06-04T00:13:47.001Z,952.2
2016-06-04T00:13:57.001Z,952.1
2016-06-04T00:14:07.001Z,952.2
2016-06-04T00:14:16.970Z,952.2
2016-06-04T00:14:26.970Z,952.2
2016-06-04T00:14:36.970Z,952.1
2016-06-04T00:14:46.973Z,952.2
2016-06-04T00:14:56.988Z,952.2
2016-06-04T00:15:06.801Z,952.2
2016-06-04T00:15:16.957Z,952.2
2016-06-04T00:15:26.941Z,952.1
2016-06-04T00:15:36.957Z,952.2
2016-06-04T00:15:46.959Z,952.2
2016-06-04T00:15:56.975Z,952.2
2016-06-04T00:16:06.928Z,952.3
2016-06-04T00:16:16.943Z,952.2
2016-06-04T00:16:26.928Z,952.1
2016-06-04T00:16:36.943Z,952.2
2016-06-04T00:16:46.946Z,952.1
2016-06-04T00:16:56.931Z,952.1
2016-06-04T00:17:06.931Z,952.1
2016-06-04T00:17:16.931Z,952.1
2016-06-04T00:17:26.931Z,952.1
2016-06-04T00:17:36.946Z,952.1
2016-06-04T00:17:46.949Z,952.1
2016-06-04T00:17:56.918Z,952.2
2016-06-04T00:18:06.918Z,952.1
2016-06-04T00:18:17.043Z,952.2
2016-06-04T00:18:26.934Z,952.2
2016-06-04T00:18:36.934Z,952.1
2016-06-04T00:18:46.748Z,952.1
2016-06-04T00:18:56.764Z,952.2
2016-06-04T00:19:06.905Z,952.1
2016-06-04T00:19:16.920Z,952.1
2016-06-04T00:19:26.920Z,952.3
2016-06-04T00:19:36.951Z,952.2
2016-06-04T00:19:46.893Z,952.2
2016-06-04T00:19:57.237Z,952.2
2016-06-04T00:20:06.909Z,952.2
2016-06-04T00:20:16.924Z,952.2
2016-06-04T00:20:26.893Z,952.3
2016-06-04T00:20:36.893Z,952.3
2016-06-04T00:20:46.879Z,952.3
2016-06-04T00:20:56.879Z,952.2
2016-06-04T00:21:06.911Z,952.3
2016-06-04T00:21:16.926Z,952.2
2016-06-04T00:21:26.895Z,952.3
2016-06-04T00:21:36.879Z,952.2
2016-06-04T00:21:46.867Z,952.3
2016-06-04T00:21:56.867Z,952.3
2016-06-04T00:22:06.882Z,952.3
2016-06-04T00:22:16.882Z,952.3
2016-06-04T00:22:26.851Z,952.3
2016-06-04T00:22:36.851Z,952.2
2016-06-04T00:22:46.853Z,952.3
2016-06-04T00:22:56.869Z,952.3
2016-06-04T00:23:06.853Z,952.3
2016-06-04T00:23:16.853Z,952.3
2016-06-04T00:23:26.853Z,952.3
2016-06-04T00:23:36.822Z,952.4
2016-06-04T00:23:46.840Z,952.3
2016-06-04T00:23:56.856Z,952.4
2016-06-04T00:24:06.840Z,952.3
2016-06-04T00:24:16.684Z,952.4
2016-06-04T00:24:26.825Z,952.4
2016-06-04T00:24:36.825Z,952.3
2016-06-04T00:24:46.828Z,952.4
2016-06-04T00:24:56.859Z,952.4
2016-06-04T00:25:06.843Z,952.4
2016-06-04T00:25:16.656Z,952.4
2016-06-04T00:25:26.812Z,952.4
2016-06-04T00:25:36.672Z,952.4
2016-06-04T00:25:46.706Z,952.4
2016-06-04T00:25:56.737Z,952.4
2016-06-04T00:26:09.190Z,952.4
2016-06-04T00:26:16.643Z,952.4
2016-06-04T00:26:27.346Z,952.5
2016-06-04T00:26:37.487Z,952.4
2016-06-04T00:26:47.442Z,952.5
2016-06-04T00:26:57.130Z,952.4
2016-06-04T00:27:07.067Z,952.5
2016-06-04T00:27:16.802Z,952.5
2016-06-04T00:27:26.661Z,952.4
2016-06-04T00:27:36.786Z,952.5
2016-06-04T00:27:46.772Z,952.4
2016-06-04T00:27:56.788Z,952.5
2016-06-04T00:28:06.804Z,952.5
2016-06-04T00:28:16.788Z,952.5
2016-06-04T00:28:26.772Z,952.6
2016-06-04T00:28:36.772Z,952.5
2016-06-04T00:28:46.776Z,952.5
2016-06-04T00:28:56.808Z,952.6
2016-06-04T00:29:06.776Z,952.5
2016-06-04T00:29:16.761Z,952.6
2016-06-04T00:29:26.745Z,952.5
2016-06-04T00:29:36.761Z,952.6
2016-06-04T00:29:46.778Z,952.6
2016-06-04T00:29:56.763Z,952.6
2016-06-04T00:30:06.763Z,952.6
2016-06-04T00:30:16.747Z,952.7
2016-06-04T00:30:26.731Z,952.7
2016-06-04T00:30:36.747Z,952.7
2016-06-04T00:30:46.766Z,952.6
2016-06-04T00:30:56.750Z,952.7
2016-06-04T00:31:06.734Z,952.7
2016-06-04T00:31:16.734Z,952.7
2016-06-04T00:31:26.719Z,952.7
2016-06-04T00:31:36.734Z,952.7
2016-06-04T00:31:46.736Z,952.7
2016-06-04T00:31:56.736Z,952.7
2016-06-04T00:32:06.721Z,952.7
2016-06-04T00:32:16.721Z,952.7
2016-06-04T00:32:26.721Z,952.8
2016-06-04T00:32:36.721Z,952.8
2016-06-04T00:32:46.724Z,952.9
2016-06-04T00:32:56.708Z,952.9
2016-06-04T00:33:06.708Z,952.8
2016-06-04T00:33:16.552Z,952.7
2016-06-04T00:33:26.708Z,952.8
2016-06-04T00:33:36.708Z,952.9
2016-06-04T00:33:46.727Z,952.9
2016-06-04T00:33:56.696Z,952.8
2016-06-04T00:34:06.696Z,952.9
2016-06-04T00:34:16.696Z,952.9
2016-06-04T00:34:26.711Z,952.8
2016-06-04T00:34:36.696Z,952.8
2016-06-04T00:34:46.542Z,952.9
2016-06-04T00:34:56.683Z,952.9
2016-06-04T00:35:06.683Z,952.8
2016-06-04T00:35:16.683Z,953
2016-06-04T00:35:26.683Z,953
2016-06-04T00:35:36.699Z,952.9
2016-06-04T00:35:46.669Z,952.9
2016-06-04T00:35:56.669Z,953
2016-06-04T00:36:06.669Z,953
2016-06-04T00:36:16.685Z,952.9
2016-06-04T00:36:26.716Z,953
2016-06-04T00:36:36.669Z,953
2016-06-04T00:36:46.672Z,953.1
2016-06-04T00:36:56.657Z,953
2016-06-04T00:37:06.688Z,953
2016-06-04T00:37:16.657Z,953
2016-06-04T00:37:26.672Z,953
2016-06-04T00:37:36.641Z,953
2016-06-04T00:37:46.503Z,953.1
2016-06-04T00:37:56.660Z,953
2016-06-04T00:38:06.675Z,953.2
2016-06-04T00:38:16.644Z,953.1
2016-06-04T00:38:26.707Z,953.1
2016-06-04T00:38:36.628Z,953.1
2016-06-04T00:38:46.631Z,953.2
2016-06-04T00:38:56.647Z,953.2
2016-06-04T00:39:06.647Z,953.2
2016-06-04T00:39:16.631Z,953.2
2016-06-04T00:39:26.631Z,953.2
2016-06-04T00:39:36.631Z,953.2
2016-06-04T00:39:46.633Z,953.2
2016-06-04T00:39:56.633Z,953.1
2016-06-04T00:40:06.618Z,953.2
2016-06-04T00:40:16.618Z,953.1
2016-06-04T00:40:26.618Z,953.3
2016-06-04T00:40:36.462Z,953.2
2016-06-04T00:40:46.418Z,953.3
2016-06-04T00:40:57.246Z,953.3
2016-06-04T00:41:06.590Z,953.2
2016-06-04T00:41:17.902Z,953.2
2016-06-04T00:41:26.824Z,953.2
2016-06-04T00:41:37.933Z,953.3
2016-06-04T00:41:47.108Z,953.3
2016-06-04T00:41:57.811Z,953.3
2016-06-04T00:42:06.593Z,953.3
2016-06-04T00:42:16.593Z,953.3
2016-06-04T00:42:26.624Z,953.3
2016-06-04T00:42:36.296Z,953.3
2016-06-04T00:42:46.579Z,953.2
2016-06-04T00:42:56.579Z,953.3
2016-06-04T00:43:06.579Z,953.3
2016-06-04T00:43:16.610Z,953.3
2016-06-04T00:43:26.579Z,953.4
2016-06-04T00:43:36.579Z,953.3
2016-06-04T00:43:46.566Z,953.3
2016-06-04T00:43:56.566Z,953.3
2016-06-04T00:44:06.582Z,953.4
2016-06-04T00:44:16.566Z,953.4
2016-06-04T00:44:26.566Z,953.3
2016-06-04T00:44:36.519Z,953.3
2016-06-04T00:44:47.021Z,953.4
2016-06-04T00:44:56.756Z,953.3
2016-06-04T00:45:06.584Z,953.3
2016-06-04T00:45:16.615Z,953.4
2016-06-04T00:45:26.568Z,953.4
2016-06-04T00:45:36.537Z,953.5
2016-06-04T00:45:46.557Z,953.5
2016-06-04T00:45:56.572Z,953.3
2016-06-04T00:46:06.541Z,953.3
2016-06-04T00:46:16.541Z,953.4
2016-06-04T00:46:26.541Z,953.3
2016-06-04T00:46:36.557Z,953.5
2016-06-04T00:46:46.574Z,953.4
2016-06-04T00:46:56.543Z,953.5
2016-06-04T00:47:06.543Z,953.4
2016-06-04T00:47:16.527Z,953.4
2016-06-04T00:47:26.543Z,953.5
2016-06-04T00:47:36.543Z,953.3
2016-06-04T00:47:46.546Z,953.6
2016-06-04T00:47:56.530Z,953.5
2016-06-04T00:48:06.530Z,953.5
2016-06-04T00:48:16.515Z,953.5
2016-06-04T00:48:26.515Z,953.4
2016-06-04T00:48:36.530Z,953.4
2016-06-04T00:48:46.517Z,953.4
2016-06-04T00:48:56.532Z,953.4
2016-06-04T00:49:06.517Z,953.5
2016-06-04T00:49:16.501Z,953.4
2016-06-04T00:49:26.517Z,953.4
2016-06-04T00:49:36.501Z,953.4
2016-06-04T00:49:46.504Z,953.3
2016-06-04T00:49:56.489Z,953.5
2016-06-04T00:50:06.473Z,953.5
2016-06-04T00:50:16.332Z,953.5
2016-06-04T00:50:26.926Z,953.4
2016-06-04T00:50:36.520Z,953.5
2016-06-04T00:50:46.788Z,953.5
2016-06-04T00:50:56.476Z,953.4
2016-06-04T00:51:06.476Z,953.5
2016-06-04T00:51:16.460Z,953.4
2016-06-04T00:51:26.507Z,953.5
2016-06-04T00:51:36.492Z,953.5
2016-06-04T00:51:46.462Z,953.4
2016-06-04T00:51:56.462Z,953.4
2016-06-04T00:52:06.322Z,953.5
2016-06-04T00:52:16.478Z,953.5
2016-06-04T00:52:26.462Z,953.4
2016-06-04T00:52:36.509Z,953.5
2016-06-04T00:52:46.466Z,953.4
2016-06-04T00:52:56.466Z,953.4
2016-06-04T00:53:06.498Z,953.5
2016-06-04T00:53:16.451Z,953.4
2016-06-04T00:53:26.513Z,953.5
2016-06-04T00:53:36.435Z,953.4
2016-06-04T00:53:46.437Z,953.5
2016-06-04T00:53:56.437Z,953.5
2016-06-04T00:54:06.453Z,953.4
2016-06-04T00:54:16.437Z,953.5
2016-06-04T00:54:26.453Z,953.5
2016-06-04T00:54:36.421Z,953.4
2016-06-04T00:54:46.408Z,953.5
2016-06-04T00:54:56.423Z,953.4
2016-06-04T00:55:06.439Z,953.5
2016-06-04T00:55:16.455Z,953.4
2016-06-04T00:55:26.470Z,953.4
2016-06-04T00:55:36.830Z,953.4
2016-06-04T00:55:47.114Z,953.5
2016-06-04T00:55:57.317Z,953.5
2016-06-04T00:56:06.489Z,953.4
2016-06-04T00:56:16.583Z,953.5
2016-06-04T00:56:26.645Z,953.5
2016-06-04T00:56:37.614Z,953.4
2016-06-04T00:56:47.086Z,953.5
2016-06-04T00:56:56.695Z,953.5
2016-06-04T00:57:06.336Z,953.5
2016-06-04T00:57:16.367Z,953.5
2016-06-04T00:57:26.961Z,953.5
2016-06-04T00:57:36.398Z,953.5
2016-06-04T00:57:46.386Z,953.5
2016-06-04T00:57:56.386Z,953.6
2016-06-04T00:58:06.229Z,953.5
2016-06-04T00:58:16.354Z,953.5
2016-06-04T00:58:26.354Z,953.6
2016-06-04T00:58:36.370Z,953.5
2016-06-04T00:58:46.400Z,953.6
2016-06-04T00:58:56.431Z,953.5
2016-06-04T00:59:06.634Z,953.5
2016-06-04T00:59:16.493Z,953.5
2016-06-04T00:59:26.384Z,953.6
2016-06-04T00:59:36.384Z,953.5
2016-06-04T00:59:46.405Z,953.7
2016-06-04T00:59:56.390Z,953.6
2016-06-04T01:00:06.390Z,953.6
2016-06-04T01:00:16.390Z,953.6
2016-06-04T01:00:26.405Z,953.7
2016-06-04T01:00:36.437Z,953.6
2016-06-04T01:00:46.425Z,953.6
2016-06-04T01:00:56.409Z,953.6
2016-06-04T01:01:06.409Z,953.5
2016-06-04T01:01:16.409Z,953.7
2016-06-04T01:01:26.425Z,953.7
2016-06-04T01:01:36.409Z,953.6
2016-06-04T01:01:46.430Z,953.7
2016-06-04T01:01:56.430Z,953.6
2016-06-04T01:02:06.290Z,953.6
2016-06-04T01:02:16.430Z,953.6
2016-06-04T01:02:26.446Z,953.7
2016-06-04T01:02:36.430Z,953.6
2016-06-04T01:02:46.451Z,953.6
2016-06-04T01:02:56.466Z,953.7
2016-06-04T01:03:06.466Z,953.7
2016-06-04T01:03:16.451Z,953.7
2016-06-04T01:03:26.607Z,953.7
2016-06-04T01:03:36.904Z,953.6
2016-06-04T01:03:46.823Z,953.7
2016-06-04T01:03:56.463Z,953.7
2016-06-04T01:04:06.541Z,953.7
2016-06-04T01:04:16.479Z,953.7
2016-06-04T01:04:26.463Z,953.7
2016-06-04T01:04:36.463Z,953.7
2016-06-04T01:04:46.509Z,953.7
2016-06-04T01:04:56.478Z,953.7
2016-06-04T01:05:06.494Z,953.7
2016-06-04T01:05:16.478Z,953.7
2016-06-04T01:05:26.494Z,953.7
2016-06-04T01:05:36.463Z,953.7
2016-06-04T01:05:46.462Z,953.8
2016-06-04T01:05:56.556Z,953.7
2016-06-04T01:06:06.556Z,953.7
2016-06-04T01:06:16.478Z,953.8
2016-06-04T01:06:26.462Z,953.9
2016-06-04T01:06:36.290Z,953.8
2016-06-04T01:06:46.460Z,953.8
2016-06-04T01:06:56.476Z,953.8
2016-06-04T01:07:06.476Z,953.8
2016-06-04T01:07:16.320Z,953.8
2016-06-04T01:07:26.288Z,953.9
2016-06-04T01:07:36.445Z,953.8
2016-06-04T01:07:46.475Z,953.9
2016-06-04T01:07:56.475Z,953.8
2016-06-04T01:08:06.460Z,953.9
2016-06-04T01:08:16.460Z,953.9
2016-06-04T01:08:26.288Z,953.9
2016-06-04T01:08:36.444Z,954
2016-06-04T01:08:46.471Z,953.9
2016-06-04T01:08:56.502Z,953.8
2016-06-04T01:09:06.533Z,953.9
2016-06-04T01:09:16.439Z,954
2016-06-04T01:09:26.283Z,954.1
2016-06-04T01:09:36.439Z,954
2016-06-04T01:09:46.478Z,954
2016-06-04T01:09:56.462Z,954
2016-06-04T01:10:06.431Z,954.1
2016-06-04T01:10:16.431Z,954
2016-06-04T01:10:26.446Z,954
2016-06-04T01:10:36.743Z,954.1
2016-06-04T01:10:47.266Z,954
2016-06-04T01:10:56.500Z,954
2016-06-04T01:11:06.953Z,954.1
2016-06-04T01:11:16.907Z,954.2
2016-06-04T01:11:26.719Z,954.1
2016-06-04T01:11:36.813Z,954.1
2016-06-04T01:11:47.085Z,954.2
2016-06-04T01:11:56.601Z,954.1
2016-06-04T01:12:06.460Z,954.1
2016-06-04T01:12:16.414Z,954.1
2016-06-04T01:12:26.289Z,954.2
2016-06-04T01:12:36.414Z,954.2
2016-06-04T01:12:46.421Z,954.2
2016-06-04T01:12:56.421Z,954.2
2016-06-04T01:13:06.421Z,954.2
2016-06-04T01:13:16.421Z,954.2
2016-06-04T01:13:26.389Z,954.2
2016-06-04T01:13:36.405Z,954.2
2016-06-04T01:13:46.395Z,954.2
2016-06-04T01:13:56.567Z,954.3
2016-06-04T01:14:06.427Z,954.3
2016-06-04T01:14:16.411Z,954.3
2016-06-04T01:14:26.395Z,954.2
2016-06-04T01:14:36.395Z,954.2
2016-06-04T01:14:46.399Z,954.3
2016-06-04T01:14:56.399Z,954.2
2016-06-04T01:15:06.399Z,954.2
2016-06-04T01:15:16.493Z,954.2
2016-06-04T01:15:26.399Z,954.3
2016-06-04T01:15:40.431Z,954.3
2016-06-04T01:15:52.450Z,954.3
2016-06-04T01:16:04.481Z,954.4
2016-06-04T01:16:16.356Z,954.3
2016-06-04T01:16:28.278Z,954.3
2016-06-04T01:16:40.200Z,954.4
2016-06-04T01:16:52.235Z,954.3
2016-06-04T01:17:04.376Z,954.3
2016-06-04T01:17:16.282Z,954.4
2016-06-04T01:17:28.267Z,954.3
2016-06-04T01:17:38.595Z,954.3
2016-06-04T01:17:45.131Z,954.3
2016-06-04T01:17:55.178Z,954.3
2016-06-04T01:18:05.115Z,954.4
2016-06-04T01:18:15.131Z,954.3
2016-06-04T01:18:25.115Z,954.3
2016-06-04T01:18:35.131Z,954.4
2016-06-04T01:18:45.134Z,954.4
2016-06-04T01:18:55.150Z,954.3
2016-06-04T01:19:05.118Z,954.3
2016-06-04T01:19:15.103Z,954.3
2016-06-04T01:19:25.118Z,954.3
2016-06-04T01:19:35.118Z,954.4
2016-06-04T01:19:45.325Z,954.3
2016-06-04T01:19:55.168Z,954.4
2016-06-04T01:20:05.090Z,954.3
2016-06-04T01:20:15.106Z,954.4
2016-06-04T01:20:25.106Z,954.4
2016-06-04T01:20:35.106Z,954.4
2016-06-04T01:20:45.110Z,954.5
2016-06-04T01:20:55.079Z,954.4
2016-06-04T01:21:05.094Z,954.4
2016-06-04T01:21:15.079Z,954.4
2016-06-04T01:21:25.110Z,954.4
2016-06-04T01:21:35.094Z,954.4
2016-06-04T01:21:45.144Z,954.3
2016-06-04T01:21:55.097Z,954.4
2016-06-04T01:22:05.082Z,954.4
2016-06-04T01:22:15.082Z,954.4
2016-06-04T01:22:25.082Z,954.4
2016-06-04T01:22:35.082Z,954.4
2016-06-04T01:22:45.069Z,954.5
2016-06-04T01:22:55.069Z,954.4
2016-06-04T01:23:05.069Z,954.5
2016-06-04T01:23:15.069Z,954.5
2016-06-04T01:23:25.053Z,954.5
2016-06-04T01:23:34.928Z,954.6
2016-06-04T01:23:45.056Z,954.6
2016-06-04T01:23:55.041Z,954.5
2016-06-04T01:24:05.056Z,954.6
2016-06-04T01:24:15.072Z,954.4
2016-06-04T01:24:25.056Z,954.6
2016-06-04T01:24:35.041Z,954.5
2016-06-04T01:24:44.887Z,954.6
2016-06-04T01:24:55.044Z,954.6
2016-06-04T01:25:05.044Z,954.6
2016-06-04T01:25:15.059Z,954.6
2016-06-04T01:25:25.044Z,954.6
2016-06-04T01:25:34.887Z,954.6
2016-06-04T01:25:45.484Z,954.6
2016-06-04T01:25:56.015Z,954.6
2016-06-04T01:26:05.515Z,954.7
2016-06-04T01:26:15.156Z,954.7
2016-06-04T01:26:25.594Z,954.7
2016-06-04T01:26:35.281Z,954.6
2016-06-04T01:26:46.034Z,954.7
2016-06-04T01:26:55.222Z,954.8
2016-06-04T01:27:05.425Z,954.7
2016-06-04T01:27:15.003Z,954.8
2016-06-04T01:27:25.003Z,954.7
2016-06-04T01:27:35.018Z,954.8
2016-06-04T01:27:45.021Z,954.7
2016-06-04T01:27:55.037Z,954.8
2016-06-04T01:28:04.990Z,954.7
2016-06-04T01:28:14.990Z,954.8
2016-06-04T01:28:24.975Z,954.8
2016-06-04T01:28:35.006Z,954.7
2016-06-04T01:28:45.009Z,954.8
2016-06-04T01:28:54.993Z,954.8
2016-06-04T01:29:04.978Z,954.8
2016-06-04T01:29:14.978Z,954.8
2016-06-04T01:29:24.978Z,954.8
2016-06-04T01:29:34.978Z,954.8
2016-06-04T01:29:44.981Z,954.8
2016-06-04T01:29:55.043Z,954.8
2016-06-04T01:30:04.965Z,954.7
2016-06-04T01:30:14.965Z,954.8
2016-06-04T01:30:24.965Z,954.8
2016-06-04T01:30:34.981Z,954.8
2016-06-04T01:30:44.968Z,954.8
2016-06-04T01:30:54.952Z,954.9
2016-06-04T01:31:04.968Z,954.8
2016-06-04T01:31:14.952Z,954.9
2016-06-04T01:31:24.952Z,954.8
2016-06-04T01:31:34.968Z,954.8
2016-06-04T01:31:44.970Z,954.8
2016-06-04T01:31:54.939Z,954.9
2016-06-04T01:32:04.939Z,954.8
2016-06-04T01:32:14.939Z,954.9
2016-06-04T01:32:24.954Z,954.8
2016-06-04T01:32:34.954Z,954.9
2016-06-04T01:32:44.942Z,954.9
2016-06-04T01:32:54.926Z,954.8
2016-06-04T01:33:04.942Z,954.8
2016-06-04T01:33:14.942Z,954.8
2016-06-04T01:33:24.926Z,954.8
2016-06-04T01:33:34.785Z,954.8
2016-06-04T01:33:44.897Z,954.8
2016-06-04T01:33:54.897Z,954.8
2016-06-04T01:34:04.897Z,954.8
2016-06-04T01:34:14.928Z,954.8
2016-06-04T01:34:24.912Z,954.8
2016-06-04T01:34:34.741Z,954.8
2016-06-04T01:34:44.745Z,954.8
2016-06-04T01:34:54.901Z,954.9
2016-06-04T01:35:04.932Z,954.8
2016-06-04T01:35:14.901Z,954.9
2016-06-04T01:35:24.901Z,954.9
2016-06-04T01:35:34.745Z,954.9
2016-06-04T01:35:45.325Z,954.8
2016-06-04T01:35:54.887Z,954.8
2016-06-04T01:36:04.887Z,954.9
2016-06-04T01:36:14.903Z,954.8
2016-06-04T01:36:24.903Z,954.8
2016-06-04T01:36:34.872Z,954.9
2016-06-04T01:36:44.875Z,954.9
2016-06-04T01:36:54.875Z,955
2016-06-04T01:37:04.875Z,955
2016-06-04T01:37:14.875Z,954.9
2016-06-04T01:37:24.875Z,955
2016-06-04T01:37:34.859Z,955
2016-06-04T01:37:45.737Z,955
2016-06-04T01:37:58.628Z,955
2016-06-04T01:38:08.674Z,955
2016-06-04T01:38:19.987Z,955
2016-06-04T01:38:29.518Z,955
2016-06-04T01:38:41.690Z,955
2016-06-04T01:38:50.551Z,955
2016-06-04T01:39:03.786Z,955
2016-06-04T01:39:15.770Z,955
2016-06-04T01:39:27.755Z,955
2016-06-04T01:39:39.755Z,955
2016-06-04T01:39:46.383Z,955
2016-06-04T01:39:56.336Z,955
2016-06-04T01:40:06.336Z,955
2016-06-04T01:40:16.320Z,955
2016-06-04T01:40:26.304Z,955.1
2016-06-04T01:40:36.304Z,955.1
2016-06-04T01:40:46.667Z,955.1
2016-06-04T01:40:56.886Z,955.1
2016-06-04T01:41:07.495Z,955.1
2016-06-04T01:41:16.198Z,955.1
2016-06-04T01:41:26.307Z,954.9
2016-06-04T01:41:36.307Z,955.1
2016-06-04T01:41:47.356Z,955.1
2016-06-04T01:41:56.997Z,955.1
2016-06-04T01:42:06.294Z,955.1
2016-06-04T01:42:16.278Z,955.2
2016-06-04T01:42:26.294Z,955.1
2016-06-04T01:42:36.309Z,955.2
2016-06-04T01:42:46.297Z,955.2
2016-06-04T01:42:56.281Z,955.2
2016-06-04T01:43:06.266Z,955.2
2016-06-04T01:43:16.266Z,955.1
2016-06-04T01:43:26.281Z,955.2
2016-06-04T01:43:36.281Z,955.3
2016-06-04T01:43:46.284Z,955.2
2016-06-04T01:43:56.269Z,955.2
2016-06-04T01:44:06.284Z,955.2
2016-06-04T01:44:16.269Z,955.2
2016-06-04T01:44:26.269Z,955.2
2016-06-04T01:44:36.284Z,955.3
2016-06-04T01:44:46.255Z,955.3
2016-06-04T01:44:56.239Z,955.3
2016-06-04T01:45:06.224Z,955.3
2016-06-04T01:45:16.255Z,955.4
2016-06-04T01:45:26.255Z,955.3
2016-06-04T01:45:36.255Z,955.3
2016-06-04T01:45:46.242Z,955.3
2016-06-04T01:45:56.211Z,955.3
2016-06-04T01:46:06.227Z,955.3
2016-06-04T01:46:16.227Z,955.4
2016-06-04T01:46:26.258Z,955.3
2016-06-04T01:46:36.242Z,955.4
2016-06-04T01:46:46.230Z,955.4
2016-06-04T01:46:56.214Z,955.4
2016-06-04T01:47:06.230Z,955.4
2016-06-04T01:47:16.214Z,955.4
2016-06-04T01:47:26.230Z,955.3
2016-06-04T01:47:36.198Z,955.5
2016-06-04T01:47:46.217Z,955.4
2016-06-04T01:47:56.186Z,955.4
2016-06-04T01:48:06.217Z,955.5
2016-06-04T01:48:16.201Z,955.4
2016-06-04T01:48:26.201Z,955.4
2016-06-04T01:48:36.186Z,955.5
2016-06-04T01:48:46.188Z,955.5
2016-06-04T01:48:56.203Z,955.4
2016-06-04T01:49:06.203Z,955.5
2016-06-04T01:49:16.188Z,955.5
2016-06-04T01:49:26.172Z,955.6
2016-06-04T01:49:36.188Z,955.4
2016-06-04T01:49:46.160Z,955.5
2016-06-04T01:49:56.175Z,955.5
2016-06-04T01:50:06.175Z,955.6
2016-06-04T01:50:16.191Z,955.5
2016-06-04T01:50:26.160Z,955.5
2016-06-04T01:50:36.160Z,955.5
2016-06-04T01:50:46.162Z,955.5
2016-06-04T01:50:56.177Z,955.5
2016-06-04T01:51:06.177Z,955.5
2016-06-04T01:51:16.162Z,955.6
2016-06-04T01:51:26.162Z,955.6
2016-06-04T01:51:36.146Z,955.6
2016-06-04T01:51:46.149Z,955.5
2016-06-04T01:51:56.165Z,955.6
2016-06-04T01:52:06.165Z,955.6
2016-06-04T01:52:15.993Z,955.5
2016-06-04T01:52:26.133Z,955.6
2016-06-04T01:52:36.118Z,955.5
2016-06-04T01:52:46.168Z,955.7
2016-06-04T01:52:56.730Z,955.6
2016-06-04T01:53:06.199Z,955.7
2016-06-04T01:53:16.121Z,955.5
2016-06-04T01:53:26.136Z,955.6
2016-06-04T01:53:36.136Z,955.5
2016-06-04T01:53:46.138Z,955.6
2016-06-04T01:53:56.138Z,955.6
2016-06-04T01:54:06.123Z,955.6
2016-06-04T01:54:16.107Z,955.6
2016-06-04T01:54:25.982Z,955.5
2016-06-04T01:54:36.138Z,955.6
2016-06-04T01:54:46.126Z,955.6
2016-06-04T01:54:56.141Z,955.6
2016-06-04T01:55:06.094Z,955.6
2016-06-04T01:55:16.157Z,955.6
2016-06-04T01:55:28.391Z,955.7
2016-06-04T01:55:41.673Z,955.7
2016-06-04T01:55:49.113Z,955.7
2016-06-04T01:55:59.426Z,955.7
2016-06-04T01:56:08.941Z,955.6
2016-06-04T01:56:19.301Z,955.7
2016-06-04T01:56:28.863Z,955.7
2016-06-04T01:56:38.863Z,955.7
2016-06-04T01:56:49.397Z,955.7
2016-06-04T01:56:58.819Z,955.7
2016-06-04T01:57:08.944Z,955.7
2016-06-04T01:57:18.788Z,955.7
2016-06-04T01:57:29.022Z,955.8
2016-06-04T01:57:39.007Z,955.8
2016-06-04T01:57:48.885Z,955.8
2016-06-04T01:57:58.885Z,955.7
2016-06-04T01:58:08.838Z,955.8
2016-06-04T01:58:18.963Z,955.8
2016-06-04T01:58:28.978Z,955.8
2016-06-04T01:58:38.932Z,955.8
2016-06-04T01:58:48.574Z,955.8
2016-06-04T01:58:58.512Z,955.8
2016-06-04T01:59:08.496Z,955.8
2016-06-04T01:59:18.355Z,955.9
2016-06-04T01:59:28.480Z,955.8
2016-06-04T01:59:38.480Z,955.9
2016-06-04T01:59:48.498Z,955.9
2016-06-04T01:59:58.498Z,955.9
2016-06-04T02:00:08.498Z,955.9
2016-06-04T02:00:18.482Z,955.9
2016-06-04T02:00:28.529Z,955.9
2016-06-04T02:00:38.482Z,955.9
2016-06-04T02:00:48.502Z,955.8
2016-06-04T02:00:58.486Z,955.8
2016-06-04T02:01:08.486Z,955.9
2016-06-04T02:01:18.518Z,955.8
2016-06-04T02:01:28.471Z,955.9
2016-06-04T02:01:38.471Z,955.9
2016-06-04T02:01:48.488Z,955.9
2016-06-04T02:01:58.473Z,955.9
2016-06-04T02:02:08.442Z,955.9
2016-06-04T02:02:18.457Z,955.8
2016-06-04T02:02:28.457Z,955.9
2016-06-04T02:02:38.473Z,956
2016-06-04T02:02:48.459Z,955.9
2016-06-04T02:02:58.444Z,956
2016-06-04T02:03:08.444Z,956
2016-06-04T02:03:18.428Z,955.9
2016-06-04T02:03:28.459Z,955.9
2016-06-04T02:03:38.444Z,956
2016-06-04T02:03:48.432Z,956
2016-06-04T02:03:58.448Z,955.9
2016-06-04T02:04:08.448Z,956
2016-06-04T02:04:18.260Z,956
2016-06-04T02:04:28.448Z,956.1
2016-06-04T02:04:38.463Z,956
2016-06-04T02:04:48.450Z,955.9
2016-06-04T02:04:58.418Z,956
2016-06-04T02:05:08.434Z,956.1
2016-06-04T02:05:18.418Z,956
2016-06-04T02:05:28.418Z,956.1
2016-06-04T02:05:38.418Z,956.1
2016-06-04T02:05:48.420Z,956.1
2016-06-04T02:05:58.389Z,956.1
2016-06-04T02:06:08.389Z,956.1
2016-06-04T02:06:18.389Z,956.1
2016-06-04T02:06:28.389Z,956.1
2016-06-04T02:06:38.405Z,956.2
2016-06-04T02:06:48.393Z,956.1
2016-06-04T02:06:58.393Z,956.1
2016-06-04T02:07:08.393Z,956.1
2016-06-04T02:07:18.393Z,956
2016-06-04T02:07:28.393Z,956.1
2016-06-04T02:07:38.393Z,956.1
2016-06-04T02:07:48.208Z,956.2
2016-06-04T02:07:58.379Z,956.1
2016-06-04T02:08:08.364Z,956.1
2016-06-04T02:08:18.379Z,956.1
2016-06-04T02:08:28.364Z,956.1
2016-06-04T02:08:38.348Z,956.1
2016-06-04T02:08:48.194Z,956.1
2016-06-04T02:08:58.366Z,956.2
2016-06-04T02:09:08.397Z,956.2
2016-06-04T02:09:18.366Z,956.1
2016-06-04T02:09:28.350Z,956.1
2016-06-04T02:09:38.350Z,956.1
2016-06-04T02:09:48.198Z,956.2
2016-06-04T02:09:58.198Z,956.2